sensor_id;sensor_type;location;lat;lon;timestamp;temperature;humidity
27540;DHT22;15906;52.046;4.724;2022-08-02T00:01:49;17.60;99.90
27540;DHT22;15906;52.046;4.724;2022-08-02T00:04:15;17.50;99.90
27540;DHT22;15906;52.046;4.724;2022-08-02T00:06:40;17.50;99.90
27540;DHT22;15906;52.046;4.724;2022-08-02T00:09:06;17.60;99.90
27540;DHT22;15906;52.046;4.724;2022-08-02T00:11:31;17.60;99.90
27540;DHT22;15906;52.046;4.724;2022-08-02T00:13:57;17.50;99.90
27540;DHT22;15906;52.046;4.724;2022-08-02T00:16:22;17.40;99.90
27540;DHT22;15906;52.046;4.724;2022-08-02T00:18:48;17.30;99.90
27540;DHT22;15906;52.046;4.724;2022-08-02T00:21:13;17.30;99.90
27540;DHT22;15906;52.046;4.724;2022-08-02T00:23:40;17.30;99.90
27540;DHT22;15906;52.046;4.724;2022-08-02T00:26:05;17.30;99.90
27540;DHT22;15906;52.046;4.724;2022-08-02T00:28:31;17.40;99.90
27540;DHT22;15906;52.046;4.724;2022-08-02T00:30:57;17.40;99.90
27540;DHT22;15906;52.046;4.724;2022-08-02T00:33:23;17.30;99.90
27540;DHT22;15906;52.046;4.724;2022-08-02T00:35:48;17.30;99.90
27540;DHT22;15906;52.046;4.724;2022-08-02T00:38:14;17.20;99.90
27540;DHT22;15906;52.046;4.724;2022-08-02T00:40:46;17.20;99.90
27540;DHT22;15906;52.046;4.724;2022-08-02T00:43:12;17.20;99.90
27540;DHT22;15906;52.046;4.724;2022-08-02T00:45:39;17.30;99.90
27540;DHT22;15906;52.046;4.724;2022-08-02T00:48:06;17.20;99.90
27540;DHT22;15906;52.046;4.724;2022-08-02T00:50:33;17.20;99.90
27540;DHT22;15906;52.046;4.724;2022-08-02T00:52:59;17.20;99.90
27540;DHT22;15906;52.046;4.724;2022-08-02T00:55:26;17.10;99.90
27540;DHT22;15906;52.046;4.724;2022-08-02T00:57:52;17.10;99.90
27540;DHT22;15906;52.046;4.724;2022-08-02T01:00:18;17.00;99.90
27540;DHT22;15906;52.046;4.724;2022-08-02T01:02:43;17.00;99.90
27540;DHT22;15906;52.046;4.724;2022-08-02T01:05:09;17.10;99.90
27540;DHT22;15906;52.046;4.724;2022-08-02T01:07:35;17.10;99.90
27540;DHT22;15906;52.046;4.724;2022-08-02T01:10:01;17.10;99.90
27540;DHT22;15906;52.046;4.724;2022-08-02T01:12:27;17.10;99.90
27540;DHT22;15906;52.046;4.724;2022-08-02T01:14:55;17.10;99.90
27540;DHT22;15906;52.046;4.724;2022-08-02T01:17:35;16.90;99.90
27540;DHT22;15906;52.046;4.724;2022-08-02T01:23:00;16.90;99.90
27540;DHT22;15906;52.046;4.724;2022-08-02T01:30:53;16.80;99.90
27540;DHT22;15906;52.046;4.724;2022-08-02T01:33:20;16.70;99.90
27540;DHT22;15906;52.046;4.724;2022-08-02T01:35:52;16.70;99.90
27540;DHT22;15906;52.046;4.724;2022-08-02T01:38:22;16.80;99.90
27540;DHT22;15906;52.046;4.724;2022-08-02T01:40:51;16.80;99.90
27540;DHT22;15906;52.046;4.724;2022-08-02T01:43:19;16.70;99.90
27540;DHT22;15906;52.046;4.724;2022-08-02T01:45:47;16.70;99.90
27540;DHT22;15906;52.046;4.724;2022-08-02T01:48:13;16.70;99.90
27540;DHT22;15906;52.046;4.724;2022-08-02T01:50:40;16.70;99.90
27540;DHT22;15906;52.046;4.724;2022-08-02T01:53:08;16.70;99.90
27540;DHT22;15906;52.046;4.724;2022-08-02T01:55:46;16.60;99.90
27540;DHT22;15906;52.046;4.724;2022-08-02T01:58:16;16.60;99.90
27540;DHT22;15906;52.046;4.724;2022-08-02T02:00:43;16.50;99.90
27540;DHT22;15906;52.046;4.724;2022-08-02T02:03:20;16.50;99.90
27540;DHT22;15906;52.046;4.724;2022-08-02T02:05:52;16.40;99.90
27540;DHT22;15906;52.046;4.724;2022-08-02T02:08:22;16.40;99.90
27540;DHT22;15906;52.046;4.724;2022-08-02T02:10:49;16.50;99.90
27540;DHT22;15906;52.046;4.724;2022-08-02T02:13:17;16.50;99.90
27540;DHT22;15906;52.046;4.724;2022-08-02T02:15:46;16.50;99.90
27540;DHT22;15906;52.046;4.724;2022-08-02T02:18:17;16.50;99.90
27540;DHT22;15906;52.046;4.724;2022-08-02T02:20:45;16.50;99.90
27540;DHT22;15906;52.046;4.724;2022-08-02T02:23:11;16.50;99.90
27540;DHT22;15906;52.046;4.724;2022-08-02T02:25:40;16.40;99.90
27540;DHT22;15906;52.046;4.724;2022-08-02T02:28:15;16.40;99.90
27540;DHT22;15906;52.046;4.724;2022-08-02T02:30:46;16.40;99.90
27540;DHT22;15906;52.046;4.724;2022-08-02T02:33:13;16.50;99.90
27540;DHT22;15906;52.046;4.724;2022-08-02T02:35:41;16.40;99.90
27540;DHT22;15906;52.046;4.724;2022-08-02T02:38:10;16.40;99.90
27540;DHT22;15906;52.046;4.724;2022-08-02T02:40:37;16.30;99.90
27540;DHT22;15906;52.046;4.724;2022-08-02T02:43:03;16.20;99.90
27540;DHT22;15906;52.046;4.724;2022-08-02T02:45:31;16.30;99.90
27540;DHT22;15906;52.046;4.724;2022-08-02T02:47:59;16.30;99.90
27540;DHT22;15906;52.046;4.724;2022-08-02T02:50:26;16.20;99.90
27540;DHT22;15906;52.046;4.724;2022-08-02T02:52:52;16.20;99.90
27540;DHT22;15906;52.046;4.724;2022-08-02T02:55:19;16.30;99.90
27540;DHT22;15906;52.046;4.724;2022-08-02T02:57:46;16.40;99.90
27540;DHT22;15906;52.046;4.724;2022-08-02T03:00:13;16.20;99.90
27540;DHT22;15906;52.046;4.724;2022-08-02T03:02:41;16.20;99.90
27540;DHT22;15906;52.046;4.724;2022-08-02T03:05:08;16.20;99.90
27540;DHT22;15906;52.046;4.724;2022-08-02T03:07:34;16.30;99.90
27540;DHT22;15906;52.046;4.724;2022-08-02T03:10:02;16.20;99.90
27540;DHT22;15906;52.046;4.724;2022-08-02T03:12:28;16.30;99.90
27540;DHT22;15906;52.046;4.724;2022-08-02T03:14:54;16.30;99.90
27540;DHT22;15906;52.046;4.724;2022-08-02T03:17:20;16.30;99.90
27540;DHT22;15906;52.046;4.724;2022-08-02T03:19:45;16.30;99.90
27540;DHT22;15906;52.046;4.724;2022-08-02T03:22:11;16.30;99.90
27540;DHT22;15906;52.046;4.724;2022-08-02T03:24:37;16.40;99.90
27540;DHT22;15906;52.046;4.724;2022-08-02T03:27:02;16.30;99.90
27540;DHT22;15906;52.046;4.724;2022-08-02T03:29:28;16.30;99.90
27540;DHT22;15906;52.046;4.724;2022-08-02T03:31:54;16.30;99.90
27540;DHT22;15906;52.046;4.724;2022-08-02T03:34:20;16.20;99.90
27540;DHT22;15906;52.046;4.724;2022-08-02T03:36:48;16.00;99.90
27540;DHT22;15906;52.046;4.724;2022-08-02T03:39:16;16.00;99.90
27540;DHT22;15906;52.046;4.724;2022-08-02T03:41:42;16.00;99.90
27540;DHT22;15906;52.046;4.724;2022-08-02T03:44:08;16.00;99.90
27540;DHT22;15906;52.046;4.724;2022-08-02T03:46:36;16.00;99.90
27540;DHT22;15906;52.046;4.724;2022-08-02T03:49:05;16.00;99.90
27540;DHT22;15906;52.046;4.724;2022-08-02T03:51:33;16.00;99.90
27540;DHT22;15906;52.046;4.724;2022-08-02T03:54:00;16.00;99.90
27540;DHT22;15906;52.046;4.724;2022-08-02T03:56:27;16.10;99.90
27540;DHT22;15906;52.046;4.724;2022-08-02T03:59:12;16.00;99.90
27540;DHT22;15906;52.046;4.724;2022-08-02T04:01:38;16.00;99.90
27540;DHT22;15906;52.046;4.724;2022-08-02T04:04:05;15.90;99.90
27540;DHT22;15906;52.046;4.724;2022-08-02T04:06:30;15.90;99.90
27540;DHT22;15906;52.046;4.724;2022-08-02T04:08:56;15.90;99.90
27540;DHT22;15906;52.046;4.724;2022-08-02T04:11:21;15.90;99.90
27540;DHT22;15906;52.046;4.724;2022-08-02T04:14:02;15.90;99.90
27540;DHT22;15906;52.046;4.724;2022-08-02T04:16:37;15.80;99.90
27540;DHT22;15906;52.046;4.724;2022-08-02T04:19:04;15.90;99.90
27540;DHT22;15906;52.046;4.724;2022-08-02T04:21:34;15.80;99.90
27540;DHT22;15906;52.046;4.724;2022-08-02T04:24:03;15.80;99.90
27540;DHT22;15906;52.046;4.724;2022-08-02T04:26:31;15.80;99.90
27540;DHT22;15906;52.046;4.724;2022-08-02T04:28:58;15.80;99.90
27540;DHT22;15906;52.046;4.724;2022-08-02T04:31:25;15.90;99.90
27540;DHT22;15906;52.046;4.724;2022-08-02T04:33:51;15.80;99.90
27540;DHT22;15906;52.046;4.724;2022-08-02T04:36:17;15.90;99.90
27540;DHT22;15906;52.046;4.724;2022-08-02T04:38:42;15.80;99.90
27540;DHT22;15906;52.046;4.724;2022-08-02T04:41:08;15.90;99.90
27540;DHT22;15906;52.046;4.724;2022-08-02T04:43:34;15.90;99.90
27540;DHT22;15906;52.046;4.724;2022-08-02T04:45:59;15.90;99.90
27540;DHT22;15906;52.046;4.724;2022-08-02T04:48:27;15.90;99.90
27540;DHT22;15906;52.046;4.724;2022-08-02T04:50:52;15.90;99.90
27540;DHT22;15906;52.046;4.724;2022-08-02T04:53:18;15.90;99.90
27540;DHT22;15906;52.046;4.724;2022-08-02T04:55:44;15.90;99.90
27540;DHT22;15906;52.046;4.724;2022-08-02T04:58:09;15.90;99.90
27540;DHT22;15906;52.046;4.724;2022-08-02T05:00:35;16.00;99.90
27540;DHT22;15906;52.046;4.724;2022-08-02T05:03:01;16.00;99.90
27540;DHT22;15906;52.046;4.724;2022-08-02T05:05:26;16.00;99.90
27540;DHT22;15906;52.046;4.724;2022-08-02T05:07:52;15.90;99.90
27540;DHT22;15906;52.046;4.724;2022-08-02T05:10:18;15.90;99.90
27540;DHT22;15906;52.046;4.724;2022-08-02T05:12:43;16.00;99.90
27540;DHT22;15906;52.046;4.724;2022-08-02T05:15:11;16.00;99.90
27540;DHT22;15906;52.046;4.724;2022-08-02T05:17:37;16.00;99.90
27540;DHT22;15906;52.046;4.724;2022-08-02T05:20:04;16.00;99.90
27540;DHT22;15906;52.046;4.724;2022-08-02T05:22:29;16.00;99.90
27540;DHT22;15906;52.046;4.724;2022-08-02T05:24:55;16.00;99.90
27540;DHT22;15906;52.046;4.724;2022-08-02T05:27:20;15.90;99.90
27540;DHT22;15906;52.046;4.724;2022-08-02T05:29:46;16.00;99.90
27540;DHT22;15906;52.046;4.724;2022-08-02T05:32:11;16.10;99.90
27540;DHT22;15906;52.046;4.724;2022-08-02T05:34:37;16.20;99.90
27540;DHT22;15906;52.046;4.724;2022-08-02T05:37:02;16.20;99.90
27540;DHT22;15906;52.046;4.724;2022-08-02T05:39:28;16.30;99.90
27540;DHT22;15906;52.046;4.724;2022-08-02T05:41:54;16.40;99.90
27540;DHT22;15906;52.046;4.724;2022-08-02T05:44:19;16.40;99.90
27540;DHT22;15906;52.046;4.724;2022-08-02T05:46:44;16.30;99.90
27540;DHT22;15906;52.046;4.724;2022-08-02T05:49:10;16.40;99.90
27540;DHT22;15906;52.046;4.724;2022-08-02T05:51:44;16.50;99.90
27540;DHT22;15906;52.046;4.724;2022-08-02T05:55:05;16.50;99.90
27540;DHT22;15906;52.046;4.724;2022-08-02T06:00:08;16.60;99.90
27540;DHT22;15906;52.046;4.724;2022-08-02T06:03:23;16.70;99.90
27540;DHT22;15906;52.046;4.724;2022-08-02T06:05:33;16.70;99.90
27540;DHT22;15906;52.046;4.724;2022-08-02T06:08:01;16.80;99.90
27540;DHT22;15906;52.046;4.724;2022-08-02T06:10:27;16.90;99.90
27540;DHT22;15906;52.046;4.724;2022-08-02T06:12:55;17.00;99.90
27540;DHT22;15906;52.046;4.724;2022-08-02T06:15:25;17.20;99.90
27540;DHT22;15906;52.046;4.724;2022-08-02T06:17:51;17.30;99.90
27540;DHT22;15906;52.046;4.724;2022-08-02T06:20:19;17.30;99.90
27540;DHT22;15906;52.046;4.724;2022-08-02T06:22:45;17.50;99.90
27540;DHT22;15906;52.046;4.724;2022-08-02T06:25:13;17.50;99.90
27540;DHT22;15906;52.046;4.724;2022-08-02T06:27:40;17.70;99.90
27540;DHT22;15906;52.046;4.724;2022-08-02T06:30:07;17.70;99.90
27540;DHT22;15906;52.046;4.724;2022-08-02T06:32:34;17.70;99.90
27540;DHT22;15906;52.046;4.724;2022-08-02T06:35:00;17.90;99.90
27540;DHT22;15906;52.046;4.724;2022-08-02T06:37:33;17.90;99.90
27540;DHT22;15906;52.046;4.724;2022-08-02T06:42:46;18.10;99.90
27540;DHT22;15906;52.046;4.724;2022-08-02T06:45:12;18.20;99.90
27540;DHT22;15906;52.046;4.724;2022-08-02T06:47:38;18.40;99.90
27540;DHT22;15906;52.046;4.724;2022-08-02T06:50:04;18.40;99.90
27540;DHT22;15906;52.046;4.724;2022-08-02T06:52:29;18.50;99.90
27540;DHT22;15906;52.046;4.724;2022-08-02T06:55:00;18.60;99.90
27540;DHT22;15906;52.046;4.724;2022-08-02T06:57:27;18.50;99.90
27540;DHT22;15906;52.046;4.724;2022-08-02T06:59:53;18.60;99.90
27540;DHT22;15906;52.046;4.724;2022-08-02T07:02:18;18.70;99.90
27540;DHT22;15906;52.046;4.724;2022-08-02T07:04:44;18.80;99.90
27540;DHT22;15906;52.046;4.724;2022-08-02T07:07:10;19.00;99.90
27540;DHT22;15906;52.046;4.724;2022-08-02T07:09:35;19.10;99.90
27540;DHT22;15906;52.046;4.724;2022-08-02T07:12:01;19.30;99.90
27540;DHT22;15906;52.046;4.724;2022-08-02T07:14:26;19.60;99.90
27540;DHT22;15906;52.046;4.724;2022-08-02T07:16:52;19.60;99.90
27540;DHT22;15906;52.046;4.724;2022-08-02T07:19:17;19.80;99.90
27540;DHT22;15906;52.046;4.724;2022-08-02T07:21:43;20.00;99.90
27540;DHT22;15906;52.046;4.724;2022-08-02T07:24:08;20.20;99.90
27540;DHT22;15906;52.046;4.724;2022-08-02T07:26:34;20.40;99.90
27540;DHT22;15906;52.046;4.724;2022-08-02T07:28:59;20.50;99.90
27540;DHT22;15906;52.046;4.724;2022-08-02T07:31:25;20.60;99.90
27540;DHT22;15906;52.046;4.724;2022-08-02T07:33:50;20.80;99.90
27540;DHT22;15906;52.046;4.724;2022-08-02T07:36:17;21.00;99.90
27540;DHT22;15906;52.046;4.724;2022-08-02T07:38:42;21.20;99.90
27540;DHT22;15906;52.046;4.724;2022-08-02T07:41:08;21.40;99.90
27540;DHT22;15906;52.046;4.724;2022-08-02T07:43:33;21.70;99.90
27540;DHT22;15906;52.046;4.724;2022-08-02T07:45:59;21.80;99.90
27540;DHT22;15906;52.046;4.724;2022-08-02T07:48:24;21.70;99.90
27540;DHT22;15906;52.046;4.724;2022-08-02T07:50:50;21.70;99.90
27540;DHT22;15906;52.046;4.724;2022-08-02T07:53:15;21.70;99.90
27540;DHT22;15906;52.046;4.724;2022-08-02T07:55:41;21.60;99.90
27540;DHT22;15906;52.046;4.724;2022-08-02T07:58:10;21.80;99.90
27540;DHT22;15906;52.046;4.724;2022-08-02T08:00:35;22.00;99.90
27540;DHT22;15906;52.046;4.724;2022-08-02T08:03:01;22.10;99.90
27540;DHT22;15906;52.046;4.724;2022-08-02T08:05:26;22.30;99.90
27540;DHT22;15906;52.046;4.724;2022-08-02T08:07:52;22.50;99.90
27540;DHT22;15906;52.046;4.724;2022-08-02T08:10:17;22.40;99.90
27540;DHT22;15906;52.046;4.724;2022-08-02T08:12:43;22.40;99.90
27540;DHT22;15906;52.046;4.724;2022-08-02T08:15:09;22.40;99.90
27540;DHT22;15906;52.046;4.724;2022-08-02T08:17:35;22.40;99.90
27540;DHT22;15906;52.046;4.724;2022-08-02T08:20:02;22.50;99.90
27540;DHT22;15906;52.046;4.724;2022-08-02T08:22:28;22.50;99.90
27540;DHT22;15906;52.046;4.724;2022-08-02T08:24:54;22.70;99.90
27540;DHT22;15906;52.046;4.724;2022-08-02T08:27:19;22.90;99.90
27540;DHT22;15906;52.046;4.724;2022-08-02T08:29:46;23.00;99.90
27540;DHT22;15906;52.046;4.724;2022-08-02T08:32:12;23.00;99.90
27540;DHT22;15906;52.046;4.724;2022-08-02T08:34:38;23.10;99.90
27540;DHT22;15906;52.046;4.724;2022-08-02T08:37:03;23.20;99.90
27540;DHT22;15906;52.046;4.724;2022-08-02T08:39:29;23.20;99.90
27540;DHT22;15906;52.046;4.724;2022-08-02T08:41:55;23.30;99.90
27540;DHT22;15906;52.046;4.724;2022-08-02T08:44:20;23.40;99.90
27540;DHT22;15906;52.046;4.724;2022-08-02T08:46:47;23.50;99.90
27540;DHT22;15906;52.046;4.724;2022-08-02T08:49:20;23.60;99.90
27540;DHT22;15906;52.046;4.724;2022-08-02T08:51:50;23.70;99.90
27540;DHT22;15906;52.046;4.724;2022-08-02T08:54:18;23.60;99.90
27540;DHT22;15906;52.046;4.724;2022-08-02T08:56:46;23.80;99.90
27540;DHT22;15906;52.046;4.724;2022-08-02T08:59:12;23.90;99.90
27540;DHT22;15906;52.046;4.724;2022-08-02T09:01:37;24.10;99.90
27540;DHT22;15906;52.046;4.724;2022-08-02T09:04:03;24.10;99.90
27540;DHT22;15906;52.046;4.724;2022-08-02T09:06:29;24.10;99.90
27540;DHT22;15906;52.046;4.724;2022-08-02T09:08:54;24.10;99.90
27540;DHT22;15906;52.046;4.724;2022-08-02T09:11:24;24.00;99.90
27540;DHT22;15906;52.046;4.724;2022-08-02T09:13:54;23.90;99.90
27540;DHT22;15906;52.046;4.724;2022-08-02T09:16:37;23.90;99.90
27540;DHT22;15906;52.046;4.724;2022-08-02T09:19:20;23.80;99.90
27540;DHT22;15906;52.046;4.724;2022-08-02T09:21:51;23.80;99.90
27540;DHT22;15906;52.046;4.724;2022-08-02T09:24:19;23.90;99.90
27540;DHT22;15906;52.046;4.724;2022-08-02T09:26:46;23.90;99.90
27540;DHT22;15906;52.046;4.724;2022-08-02T09:29:12;24.10;99.90
27540;DHT22;15906;52.046;4.724;2022-08-02T09:31:38;24.20;99.90
27540;DHT22;15906;52.046;4.724;2022-08-02T09:34:04;24.30;99.90
27540;DHT22;15906;52.046;4.724;2022-08-02T09:36:40;24.20;99.90
27540;DHT22;15906;52.046;4.724;2022-08-02T09:39:09;24.30;99.90
27540;DHT22;15906;52.046;4.724;2022-08-02T09:41:40;24.40;99.90
27540;DHT22;15906;52.046;4.724;2022-08-02T09:44:08;24.60;99.90
27540;DHT22;15906;52.046;4.724;2022-08-02T09:46:39;24.50;99.90
27540;DHT22;15906;52.046;4.724;2022-08-02T09:49:10;24.50;99.90
27540;DHT22;15906;52.046;4.724;2022-08-02T09:51:48;24.60;99.90
27540;DHT22;15906;52.046;4.724;2022-08-02T09:54:23;24.60;99.90
27540;DHT22;15906;52.046;4.724;2022-08-02T09:56:58;24.60;99.90
27540;DHT22;15906;52.046;4.724;2022-08-02T09:59:25;24.50;99.90
27540;DHT22;15906;52.046;4.724;2022-08-02T10:01:52;24.60;99.90
27540;DHT22;15906;52.046;4.724;2022-08-02T10:04:36;24.60;99.90
27540;DHT22;15906;52.046;4.724;2022-08-02T10:07:03;24.60;99.90
27540;DHT22;15906;52.046;4.724;2022-08-02T10:09:29;24.80;99.90
27540;DHT22;15906;52.046;4.724;2022-08-02T10:11:55;24.90;99.90
27540;DHT22;15906;52.046;4.724;2022-08-02T10:14:21;24.90;99.90
27540;DHT22;15906;52.046;4.724;2022-08-02T10:16:47;25.00;99.90
27540;DHT22;15906;52.046;4.724;2022-08-02T10:19:13;25.30;99.90
27540;DHT22;15906;52.046;4.724;2022-08-02T10:21:45;25.30;99.90
27540;DHT22;15906;52.046;4.724;2022-08-02T10:24:14;25.30;99.90
27540;DHT22;15906;52.046;4.724;2022-08-02T10:26:45;25.60;99.90
27540;DHT22;15906;52.046;4.724;2022-08-02T10:29:15;25.60;99.90
27540;DHT22;15906;52.046;4.724;2022-08-02T10:32:03;25.90;99.90
27540;DHT22;15906;52.046;4.724;2022-08-02T10:34:35;26.20;99.90
27540;DHT22;15906;52.046;4.724;2022-08-02T10:37:02;26.40;99.90
27540;DHT22;15906;52.046;4.724;2022-08-02T10:39:37;26.50;99.90
27540;DHT22;15906;52.046;4.724;2022-08-02T10:42:03;26.60;99.90
27540;DHT22;15906;52.046;4.724;2022-08-02T10:44:30;26.60;99.90
27540;DHT22;15906;52.046;4.724;2022-08-02T10:47:24;26.60;99.90
27540;DHT22;15906;52.046;4.724;2022-08-02T10:49:55;26.80;99.90
27540;DHT22;15906;52.046;4.724;2022-08-02T10:52:25;26.90;99.90
27540;DHT22;15906;52.046;4.724;2022-08-02T10:55:10;26.90;99.90
27540;DHT22;15906;52.046;4.724;2022-08-02T10:57:36;26.90;99.90
27540;DHT22;15906;52.046;4.724;2022-08-02T11:00:12;26.90;99.90
27540;DHT22;15906;52.046;4.724;2022-08-02T11:02:46;26.90;99.90
27540;DHT22;15906;52.046;4.724;2022-08-02T11:07:51;27.40;99.90
27540;DHT22;15906;52.046;4.724;2022-08-02T11:10:37;27.50;99.90
27540;DHT22;15906;52.046;4.724;2022-08-02T11:13:15;27.60;99.90
27540;DHT22;15906;52.046;4.724;2022-08-02T11:18:16;27.70;99.90
27540;DHT22;15906;52.046;4.724;2022-08-02T11:20:42;27.40;99.90
27540;DHT22;15906;52.046;4.724;2022-08-02T11:23:33;27.10;99.90
27540;DHT22;15906;52.046;4.724;2022-08-02T11:26:01;27.10;99.90
27540;DHT22;15906;52.046;4.724;2022-08-02T11:28:30;27.30;99.90
27540;DHT22;15906;52.046;4.724;2022-08-02T11:30:57;27.30;99.90
27540;DHT22;15906;52.046;4.724;2022-08-02T11:33:29;27.80;99.90
27540;DHT22;15906;52.046;4.724;2022-08-02T11:36:01;28.10;99.90
27540;DHT22;15906;52.046;4.724;2022-08-02T11:38:26;28.20;99.90
27540;DHT22;15906;52.046;4.724;2022-08-02T11:40:53;28.40;99.90
27540;DHT22;15906;52.046;4.724;2022-08-02T11:43:24;28.50;99.90
27540;DHT22;15906;52.046;4.724;2022-08-02T11:45:51;28.30;97.60
27540;DHT22;15906;52.046;4.724;2022-08-02T11:48:38;28.00;99.90
27540;DHT22;15906;52.046;4.724;2022-08-02T11:51:10;27.90;98.60
27540;DHT22;15906;52.046;4.724;2022-08-02T11:53:53;27.70;99.90
27540;DHT22;15906;52.046;4.724;2022-08-02T11:56:30;27.90;99.90
27540;DHT22;15906;52.046;4.724;2022-08-02T11:59:10;27.90;98.40
27540;DHT22;15906;52.046;4.724;2022-08-02T12:01:37;28.20;99.10
27540;DHT22;15906;52.046;4.724;2022-08-02T12:04:05;28.30;99.90
27540;DHT22;15906;52.046;4.724;2022-08-02T12:06:31;28.70;99.90
27540;DHT22;15906;52.046;4.724;2022-08-02T12:09:07;28.90;98.20
27540;DHT22;15906;52.046;4.724;2022-08-02T12:11:33;28.60;96.60
27540;DHT22;15906;52.046;4.724;2022-08-02T12:14:01;28.70;96.40
27540;DHT22;15906;52.046;4.724;2022-08-02T12:16:37;28.60;99.20
27540;DHT22;15906;52.046;4.724;2022-08-02T12:19:24;28.80;98.30
27540;DHT22;15906;52.046;4.724;2022-08-02T12:22:13;28.70;98.10
27540;DHT22;15906;52.046;4.724;2022-08-02T12:24:41;28.60;97.20
27540;DHT22;15906;52.046;4.724;2022-08-02T12:27:08;28.50;98.50
27540;DHT22;15906;52.046;4.724;2022-08-02T12:29:36;28.50;98.30
27540;DHT22;15906;52.046;4.724;2022-08-02T12:32:03;28.60;96.70
27540;DHT22;15906;52.046;4.724;2022-08-02T12:34:31;28.70;99.60
27540;DHT22;15906;52.046;4.724;2022-08-02T12:39:41;29.40;97.60
27540;DHT22;15906;52.046;4.724;2022-08-02T12:42:09;29.00;95.30
27540;DHT22;15906;52.046;4.724;2022-08-02T12:44:37;28.70;96.40
27540;DHT22;15906;52.046;4.724;2022-08-02T12:47:05;28.50;96.80
27540;DHT22;15906;52.046;4.724;2022-08-02T12:49:31;28.50;98.30
27540;DHT22;15906;52.046;4.724;2022-08-02T12:51:56;28.40;97.10
27540;DHT22;15906;52.046;4.724;2022-08-02T12:54:25;28.50;98.40
27540;DHT22;15906;52.046;4.724;2022-08-02T12:56:51;28.90;98.70
27540;DHT22;15906;52.046;4.724;2022-08-02T12:59:35;29.00;99.00
27540;DHT22;15906;52.046;4.724;2022-08-02T13:02:03;29.10;96.30
27540;DHT22;15906;52.046;4.724;2022-08-02T13:04:29;29.00;96.70
27540;DHT22;15906;52.046;4.724;2022-08-02T13:06:54;28.80;96.10
27540;DHT22;15906;52.046;4.724;2022-08-02T13:09:20;28.90;96.60
27540;DHT22;15906;52.046;4.724;2022-08-02T13:11:48;29.10;98.10
27540;DHT22;15906;52.046;4.724;2022-08-02T13:14:14;29.20;96.00
27540;DHT22;15906;52.046;4.724;2022-08-02T13:16:41;29.20;97.50
27540;DHT22;15906;52.046;4.724;2022-08-02T13:19:06;28.60;96.80
27540;DHT22;15906;52.046;4.724;2022-08-02T13:21:32;28.70;98.20
27540;DHT22;15906;52.046;4.724;2022-08-02T13:23:57;29.00;98.60
27540;DHT22;15906;52.046;4.724;2022-08-02T13:26:23;29.20;97.80
27540;DHT22;15906;52.046;4.724;2022-08-02T13:28:48;29.10;98.10
27540;DHT22;15906;52.046;4.724;2022-08-02T13:31:14;28.80;97.80
27540;DHT22;15906;52.046;4.724;2022-08-02T13:33:40;28.60;99.10
27540;DHT22;15906;52.046;4.724;2022-08-02T13:36:05;28.80;98.50
27540;DHT22;15906;52.046;4.724;2022-08-02T13:38:31;29.00;98.60
27540;DHT22;15906;52.046;4.724;2022-08-02T13:40:56;29.20;97.70
27540;DHT22;15906;52.046;4.724;2022-08-02T13:43:35;29.30;98.30
27540;DHT22;15906;52.046;4.724;2022-08-02T13:46:00;29.30;97.80
27540;DHT22;15906;52.046;4.724;2022-08-02T13:48:26;29.30;96.60
27540;DHT22;15906;52.046;4.724;2022-08-02T13:50:52;29.30;98.00
27540;DHT22;15906;52.046;4.724;2022-08-02T13:53:18;29.00;99.90
27540;DHT22;15906;52.046;4.724;2022-08-02T13:55:43;29.10;98.20
27540;DHT22;15906;52.046;4.724;2022-08-02T13:58:09;29.30;97.40
27540;DHT22;15906;52.046;4.724;2022-08-02T14:00:35;29.10;97.40
27540;DHT22;15906;52.046;4.724;2022-08-02T14:03:00;29.20;98.30
27540;DHT22;15906;52.046;4.724;2022-08-02T14:05:26;29.30;99.60
27540;DHT22;15906;52.046;4.724;2022-08-02T14:07:58;29.40;98.00
27540;DHT22;15906;52.046;4.724;2022-08-02T14:10:24;29.40;98.80
27540;DHT22;15906;52.046;4.724;2022-08-02T14:12:51;29.30;97.60
27540;DHT22;15906;52.046;4.724;2022-08-02T14:15:17;29.40;97.90
27540;DHT22;15906;52.046;4.724;2022-08-02T14:17:43;29.40;98.80
27540;DHT22;15906;52.046;4.724;2022-08-02T14:20:08;29.40;98.50
27540;DHT22;15906;52.046;4.724;2022-08-02T14:22:34;29.20;99.40
27540;DHT22;15906;52.046;4.724;2022-08-02T14:25:00;29.20;99.90
27540;DHT22;15906;52.046;4.724;2022-08-02T14:27:25;29.00;99.90
27540;DHT22;15906;52.046;4.724;2022-08-02T14:29:51;29.20;99.90
27540;DHT22;15906;52.046;4.724;2022-08-02T14:32:16;29.30;99.60
27540;DHT22;15906;52.046;4.724;2022-08-02T14:34:42;29.00;99.90
27540;DHT22;15906;52.046;4.724;2022-08-02T14:37:09;28.80;99.90
27540;DHT22;15906;52.046;4.724;2022-08-02T14:39:35;28.70;99.90
27540;DHT22;15906;52.046;4.724;2022-08-02T14:42:00;28.50;99.90
27540;DHT22;15906;52.046;4.724;2022-08-02T14:44:27;28.40;99.90
27540;DHT22;15906;52.046;4.724;2022-08-02T14:46:52;28.40;99.90
27540;DHT22;15906;52.046;4.724;2022-08-02T14:49:18;28.30;99.90
27540;DHT22;15906;52.046;4.724;2022-08-02T14:51:44;28.30;99.90
27540;DHT22;15906;52.046;4.724;2022-08-02T14:54:10;28.20;99.90
27540;DHT22;15906;52.046;4.724;2022-08-02T14:56:36;28.20;99.90
27540;DHT22;15906;52.046;4.724;2022-08-02T14:59:02;28.20;99.90
27540;DHT22;15906;52.046;4.724;2022-08-02T15:01:27;28.20;99.90
27540;DHT22;15906;52.046;4.724;2022-08-02T15:03:53;28.20;99.90
27540;DHT22;15906;52.046;4.724;2022-08-02T15:06:18;28.00;99.90
27540;DHT22;15906;52.046;4.724;2022-08-02T15:08:44;28.00;99.90
27540;DHT22;15906;52.046;4.724;2022-08-02T15:11:10;28.00;99.90
27540;DHT22;15906;52.046;4.724;2022-08-02T15:13:35;27.90;99.90
27540;DHT22;15906;52.046;4.724;2022-08-02T15:16:01;27.80;99.90
27540;DHT22;15906;52.046;4.724;2022-08-02T15:18:26;27.70;99.90
27540;DHT22;15906;52.046;4.724;2022-08-02T15:20:52;27.50;99.90
27540;DHT22;15906;52.046;4.724;2022-08-02T15:23:18;27.50;99.90
27540;DHT22;15906;52.046;4.724;2022-08-02T15:25:44;27.50;99.90
27540;DHT22;15906;52.046;4.724;2022-08-02T15:28:09;27.40;99.90
27540;DHT22;15906;52.046;4.724;2022-08-02T15:30:36;27.40;99.90
27540;DHT22;15906;52.046;4.724;2022-08-02T15:33:03;27.50;99.90
27540;DHT22;15906;52.046;4.724;2022-08-02T15:35:29;27.40;99.90
27540;DHT22;15906;52.046;4.724;2022-08-02T15:37:54;27.30;99.90
27540;DHT22;15906;52.046;4.724;2022-08-02T15:40:21;27.30;99.90
27540;DHT22;15906;52.046;4.724;2022-08-02T15:42:46;27.20;99.90
27540;DHT22;15906;52.046;4.724;2022-08-02T15:45:12;27.10;99.90
27540;DHT22;15906;52.046;4.724;2022-08-02T15:47:38;27.00;99.90
27540;DHT22;15906;52.046;4.724;2022-08-02T15:50:04;27.00;99.90
27540;DHT22;15906;52.046;4.724;2022-08-02T15:52:30;26.90;99.90
27540;DHT22;15906;52.046;4.724;2022-08-02T15:54:55;26.80;99.90
27540;DHT22;15906;52.046;4.724;2022-08-02T15:57:21;26.80;99.90